createdAt,value
2018-12-23T00:01:19.346Z,48.90
2018-12-23T00:03:45.702Z,48.80
2018-12-23T00:06:11.890Z,48.70
2018-12-23T00:08:39.592Z,48.60
2018-12-23T00:11:05.800Z,48.60
2018-12-23T00:13:31.981Z,48.50
2018-12-23T00:15:58.220Z,48.40
2018-12-23T00:18:24.432Z,48.40
2018-12-23T00:20:50.744Z,48.50
2018-12-23T00:23:17.543Z,48.40
2018-12-23T00:25:43.778Z,48.40
2018-12-23T00:28:10.236Z,48.40
2018-12-23T00:30:36.437Z,48.40
2018-12-23T00:33:02.899Z,48.40
2018-12-23T00:35:29.114Z,48.30
2018-12-23T00:37:55.311Z,48.30
2018-12-23T00:40:21.523Z,48.30
2018-12-23T00:42:47.760Z,48.40
2018-12-23T00:45:14.729Z,48.20
2018-12-23T00:47:41.086Z,48.40
2018-12-23T00:50:07.294Z,48.30
2018-12-23T00:52:33.510Z,48.40
2018-12-23T00:54:59.720Z,48.50
2018-12-23T00:57:25.930Z,48.60
2018-12-23T00:59:52.166Z,48.60
2018-12-23T01:02:18.396Z,48.70
2018-12-23T01:04:44.617Z,48.70
2018-12-23T01:07:11.225Z,48.60
2018-12-23T01:09:37.548Z,48.60
2018-12-23T01:12:03.784Z,48.50
2018-12-23T01:14:29.988Z,48.60
2018-12-23T01:16:56.242Z,48.50
2018-12-23T01:19:22.430Z,48.50
2018-12-23T01:21:48.632Z,48.40
2018-12-23T01:24:14.828Z,48.60
2018-12-23T01:26:41.031Z,48.60
2018-12-23T01:29:07.963Z,48.50
2018-12-23T01:31:34.930Z,48.50
2018-12-23T01:34:01.893Z,48.50
2018-12-23T01:36:29.336Z,48.50
2018-12-23T01:38:55.522Z,48.40
2018-12-23T01:41:21.722Z,48.30
2018-12-23T01:43:47.979Z,48.40
2018-12-23T01:46:15.669Z,48.40
2018-12-23T01:48:41.858Z,48.40
2018-12-23T01:51:08.043Z,48.50
2018-12-23T01:53:34.308Z,48.50
2018-12-23T01:56:00.513Z,48.50
2018-12-23T01:58:26.722Z,48.40
2018-12-23T02:00:53.527Z,48.50
2018-12-23T02:03:20.570Z,48.60
2018-12-23T02:05:46.782Z,48.50
2018-12-23T02:08:13.719Z,48.50
2018-12-23T02:10:39.898Z,48.60
2018-12-23T02:13:06.854Z,48.60
2018-12-23T02:15:33.046Z,48.60
2018-12-23T02:17:59.252Z,48.60
2018-12-23T02:20:25.419Z,48.60
2018-12-23T02:22:52.425Z,48.60
2018-12-23T02:25:18.628Z,48.50
2018-12-23T02:27:44.809Z,48.50
2018-12-23T02:30:11.004Z,48.50
2018-12-23T02:32:37.196Z,48.50
2018-12-23T02:35:03.404Z,48.40
2018-12-23T02:37:30.568Z,48.50
2018-12-23T02:39:56.803Z,48.50
2018-12-23T02:42:23.778Z,48.50
2018-12-23T02:44:49.995Z,48.70
2018-12-23T02:47:16.235Z,48.70
2018-12-23T02:49:42.444Z,48.70
2018-12-23T02:52:08.649Z,48.90
2018-12-23T02:54:35.633Z,48.90
2018-12-23T02:57:01.825Z,49.00
2018-12-23T02:59:28.029Z,48.90
2018-12-23T03:01:54.218Z,49.00
2018-12-23T03:04:20.487Z,48.90
2018-12-23T03:06:47.473Z,48.80
2018-12-23T03:09:13.742Z,48.80
2018-12-23T03:11:39.937Z,48.80
2018-12-23T03:14:06.130Z,48.80
2018-12-23T03:16:33.115Z,48.60
2018-12-23T03:18:59.397Z,48.60
2018-12-23T03:21:25.576Z,48.50
2018-12-23T03:23:51.790Z,48.50
2018-12-23T03:26:18.202Z,48.40
2018-12-23T03:28:45.572Z,48.40
2018-12-23T03:31:11.785Z,48.40
2018-12-23T03:33:38.068Z,48.40
2018-12-23T03:36:04.284Z,48.40
2018-12-23T03:38:30.498Z,48.40
2018-12-23T03:40:56.700Z,48.40
2018-12-23T03:43:22.880Z,48.40
2018-12-23T03:45:49.079Z,48.30
2018-12-23T03:48:15.276Z,48.40
2018-12-23T03:50:41.485Z,48.40
2018-12-23T03:53:07.744Z,48.40
2018-12-23T03:55:33.963Z,48.50
2018-12-23T03:58:00.148Z,48.50
2018-12-23T04:00:26.393Z,48.40
2018-12-23T04:02:52.604Z,48.40
2018-12-23T04:05:18.782Z,48.40
2018-12-23T04:07:45.056Z,48.40
2018-12-23T04:10:11.230Z,48.40
2018-12-23T04:12:38.192Z,48.60
2018-12-23T04:15:04.378Z,48.60
2018-12-23T04:17:30.568Z,48.60
2018-12-23T04:19:56.744Z,48.50
2018-12-23T04:22:23.732Z,48.60
2018-12-23T04:24:49.910Z,48.60
2018-12-23T04:27:16.108Z,48.60
2018-12-23T04:29:42.349Z,48.50
2018-12-23T04:32:08.535Z,48.50
2018-12-23T04:34:34.737Z,48.40
2018-12-23T04:37:01.711Z,48.40
2018-12-23T04:39:27.904Z,48.30
2018-12-23T04:41:54.079Z,48.30
2018-12-23T04:44:20.310Z,48.40
2018-12-23T04:46:46.517Z,48.40
2018-12-23T04:49:12.724Z,48.50
2018-12-23T04:51:39.668Z,48.40
2018-12-23T04:54:05.918Z,48.40
2018-12-23T04:56:32.099Z,48.50
2018-12-23T04:58:58.560Z,48.50
2018-12-23T05:01:24.788Z,48.50
2018-12-23T05:03:51.011Z,48.40
2018-12-23T05:06:17.961Z,48.50
2018-12-23T05:08:44.019Z,48.50
2018-12-23T05:11:10.227Z,48.50
2018-12-23T05:13:36.420Z,48.60
2018-12-23T05:16:03.392Z,49.20
2018-12-23T05:18:29.818Z,48.70
2018-12-23T05:20:56.041Z,48.70
2018-12-23T05:23:22.247Z,48.70
2018-12-23T05:25:49.285Z,48.70
2018-12-23T05:28:15.500Z,48.70
2018-12-23T05:30:41.726Z,48.80
2018-12-23T05:33:07.927Z,48.80
2018-12-23T05:35:34.211Z,48.70
2018-12-23T05:38:00.408Z,48.80
2018-12-23T05:40:26.624Z,48.70
2018-12-23T05:42:52.795Z,48.90
2018-12-23T05:45:19.966Z,49.10
2018-12-23T05:47:46.178Z,48.90
2018-12-23T05:50:13.448Z,49.00
2018-12-23T05:52:39.676Z,48.90
2018-12-23T05:55:05.904Z,48.90
2018-12-23T05:57:32.087Z,48.90
2018-12-23T05:59:59.042Z,48.90
2018-12-23T06:02:25.215Z,49.10
2018-12-23T06:04:51.439Z,49.10
2018-12-23T06:07:18.400Z,49.20
2018-12-23T06:09:44.620Z,49.30
2018-12-23T06:12:10.805Z,49.20
2018-12-23T06:14:37.023Z,49.10
2018-12-23T06:17:03.213Z,49.10
2018-12-23T06:19:29.407Z,49.10
2018-12-23T06:21:55.600Z,49.10
2018-12-23T06:24:21.776Z,49.00
2018-12-23T06:26:49.123Z,49.00
2018-12-23T06:29:15.303Z,49.00
2018-12-23T06:31:41.523Z,49.10
2018-12-23T06:34:07.738Z,49.10
2018-12-23T06:36:33.965Z,49.10
2018-12-23T06:39:00.176Z,49.10
2018-12-23T06:41:26.420Z,49.10
2018-12-23T06:43:52.615Z,49.10
2018-12-23T06:46:18.816Z,49.10
2018-12-23T06:48:45.038Z,49.30
2018-12-23T06:51:12.120Z,49.90
2018-12-23T06:53:38.324Z,49.40
2018-12-23T06:56:05.497Z,49.30
2018-12-23T06:58:31.694Z,49.20
2018-12-23T07:00:59.393Z,49.50
2018-12-23T07:03:25.588Z,49.40
2018-12-23T07:05:51.779Z,49.40
2018-12-23T07:08:18.003Z,49.30
2018-12-23T07:10:44.196Z,49.40
2018-12-23T07:13:10.377Z,49.40
2018-12-23T07:15:36.573Z,49.30
2018-12-23T07:18:02.783Z,49.40
2018-12-23T07:20:28.959Z,49.40
2018-12-23T07:22:55.188Z,49.50
2018-12-23T07:25:21.379Z,49.50
2018-12-23T07:27:47.632Z,49.60
2018-12-23T07:30:13.824Z,49.80
2018-12-23T07:32:40.019Z,49.90
2018-12-23T07:35:06.215Z,49.80
2018-12-23T07:37:32.430Z,49.50
2018-12-23T07:39:58.626Z,49.80
2018-12-23T07:42:24.830Z,49.70
2018-12-23T07:44:51.031Z,49.60
2018-12-23T07:47:17.230Z,49.40
2018-12-23T07:49:43.404Z,49.40
2018-12-23T07:52:09.611Z,49.10
2018-12-23T07:54:35.820Z,49.10
2018-12-23T07:57:02.674Z,49.00
2018-12-23T07:59:28.899Z,49.00
2018-12-23T08:01:57.003Z,48.90
2018-12-23T08:04:21.371Z,48.90
2018-12-23T08:06:47.559Z,48.80
2018-12-23T08:09:13.776Z,48.70
2018-12-23T08:11:40.055Z,48.70
2018-12-23T08:14:06.275Z,48.70
2018-12-23T08:16:32.451Z,48.60
2018-12-23T08:18:59.421Z,48.60
2018-12-23T08:21:25.646Z,48.50
2018-12-23T08:23:51.847Z,48.60
2018-12-23T08:26:18.050Z,48.50
2018-12-23T08:28:44.279Z,48.50
2018-12-23T08:31:10.490Z,48.60
2018-12-23T08:33:36.700Z,48.60
2018-12-23T08:36:02.940Z,48.50
2018-12-23T08:38:29.916Z,48.50
2018-12-23T08:40:57.103Z,48.60
2018-12-23T08:43:23.294Z,49.00
2018-12-23T08:45:49.476Z,48.40
2018-12-23T08:48:15.785Z,48.40
2018-12-23T08:50:41.983Z,48.40
2018-12-23T08:53:09.688Z,48.20
2018-12-23T08:55:35.891Z,48.10
2018-12-23T08:58:02.098Z,48.40
2018-12-23T09:00:28.322Z,48.40
2018-12-23T09:02:54.504Z,48.20
2018-12-23T09:05:20.713Z,48.30
2018-12-23T09:07:53.033Z,48.20
2018-12-23T09:10:13.168Z,48.30
2018-12-23T09:12:40.100Z,48.20
2018-12-23T09:15:06.341Z,48.10
2018-12-23T09:17:32.517Z,48.20
2018-12-23T09:19:58.707Z,48.10
2018-12-23T09:22:24.899Z,48.00
2018-12-23T09:24:51.847Z,48.20
2018-12-23T09:27:18.058Z,48.20
2018-12-23T09:29:44.328Z,48.10
2018-12-23T09:32:10.546Z,48.10
2018-12-23T09:34:36.735Z,48.10
2018-12-23T09:37:02.978Z,48.10
2018-12-23T09:39:30.703Z,48.00
2018-12-23T09:41:56.891Z,48.00
2018-12-23T09:44:23.115Z,48.00
2018-12-23T09:46:49.308Z,48.10
2018-12-23T09:49:15.569Z,48.10
2018-12-23T09:51:43.884Z,48.70
2018-12-23T09:54:10.092Z,48.00
2018-12-23T09:56:36.288Z,48.10
2018-12-23T09:59:02.507Z,47.90
2018-12-23T10:01:28.730Z,48.60
2018-12-23T10:03:55.575Z,48.00
2018-12-23T10:06:21.784Z,47.80
2018-12-23T10:08:48.281Z,47.80
2018-12-23T10:11:14.660Z,47.90
2018-12-23T10:13:40.901Z,47.90
2018-12-23T10:16:07.154Z,47.90
2018-12-23T10:18:33.559Z,47.90
2018-12-23T10:20:59.772Z,47.90
2018-12-23T10:23:25.963Z,47.80
2018-12-23T10:25:52.292Z,47.80
2018-12-23T10:28:18.507Z,47.80
2018-12-23T10:30:44.675Z,47.70
2018-12-23T10:33:10.859Z,47.60
2018-12-23T10:35:37.817Z,47.60
2018-12-23T10:38:04.011Z,47.50
2018-12-23T10:40:30.214Z,47.70
2018-12-23T10:42:56.416Z,47.60
2018-12-23T10:45:22.631Z,47.70
2018-12-23T10:47:48.853Z,47.60
2018-12-23T10:50:15.818Z,47.60
2018-12-23T10:52:42.027Z,48.20
2018-12-23T10:55:08.251Z,47.40
2018-12-23T10:57:34.432Z,47.30
2018-12-23T11:00:00.654Z,47.50
2018-12-23T11:02:26.914Z,47.30
2018-12-23T11:04:53.123Z,47.50
2018-12-23T11:07:19.335Z,48.00
2018-12-23T11:09:45.597Z,47.40
2018-12-23T11:12:11.799Z,47.40
2018-12-23T11:14:38.024Z,47.40
2018-12-23T11:17:04.289Z,47.40
2018-12-23T11:19:30.712Z,47.40
2018-12-23T11:21:56.934Z,47.30
2018-12-23T11:24:23.388Z,47.30
2018-12-23T11:26:49.811Z,47.30
2018-12-23T11:29:16.023Z,47.30
2018-12-23T11:31:42.255Z,47.30
2018-12-23T11:34:08.439Z,47.10
2018-12-23T11:36:34.647Z,47.20
2018-12-23T11:39:01.596Z,47.20
2018-12-23T11:41:28.034Z,47.10
2018-12-23T11:43:54.302Z,47.20
2018-12-23T11:46:20.479Z,47.20
2018-12-23T11:48:46.671Z,47.20
2018-12-23T11:51:12.878Z,47.20
2018-12-23T11:53:39.072Z,47.20
2018-12-23T11:56:05.314Z,47.10
2018-12-23T11:58:31.486Z,47.20
2018-12-23T12:00:57.877Z,47.20
2018-12-23T12:03:24.076Z,47.20
2018-12-23T12:05:50.322Z,47.20
2018-12-23T12:08:16.496Z,47.30
2018-12-23T12:10:42.703Z,47.00
2018-12-23T12:13:08.886Z,47.10
2018-12-23T12:15:35.868Z,47.20
2018-12-23T12:18:02.091Z,47.20
2018-12-23T12:20:28.292Z,47.20
2018-12-23T12:22:54.739Z,47.20
2018-12-23T12:25:20.949Z,47.10
2018-12-23T12:27:47.171Z,47.20
2018-12-23T12:30:13.355Z,47.10
2018-12-23T12:32:39.610Z,47.00
2018-12-23T12:35:07.339Z,46.90
2018-12-23T12:37:33.564Z,46.80
2018-12-23T12:39:59.742Z,47.00
2018-12-23T12:42:25.946Z,47.00
2018-12-23T12:44:52.145Z,47.00
2018-12-23T12:47:19.101Z,47.00
2018-12-23T12:49:45.306Z,47.00
2018-12-23T12:52:11.525Z,47.00
2018-12-23T12:54:37.795Z,46.90
2018-12-23T12:57:03.999Z,46.90
2018-12-23T12:59:30.420Z,46.70
2018-12-23T13:01:57.203Z,46.60
2018-12-23T13:04:23.411Z,46.80
2018-12-23T13:06:49.716Z,46.80
2018-12-23T13:09:16.171Z,46.80
2018-12-23T13:11:42.335Z,46.70
2018-12-23T13:14:08.535Z,46.70
2018-12-23T13:16:34.756Z,46.70
2018-12-23T13:19:00.973Z,46.60
2018-12-23T13:21:27.253Z,46.60
2018-12-23T13:23:53.467Z,46.60
2018-12-23T13:26:19.752Z,46.60
2018-12-23T13:28:46.196Z,46.60
2018-12-23T13:31:12.411Z,46.40
2018-12-23T13:33:38.623Z,46.40
2018-12-23T13:36:04.859Z,46.30
2018-12-23T13:38:31.039Z,46.30
2018-12-23T13:40:57.329Z,46.20
2018-12-23T13:43:23.542Z,45.90
2018-12-23T13:45:49.736Z,46.30
2018-12-23T13:48:15.933Z,46.20
2018-12-23T13:50:42.143Z,46.30
2018-12-23T13:53:08.380Z,46.20
2018-12-23T13:55:34.583Z,46.30
2018-12-23T13:58:01.573Z,46.20
2018-12-23T14:00:27.798Z,46.10
2018-12-23T14:02:54.024Z,46.10
2018-12-23T14:05:20.258Z,46.10
2018-12-23T14:07:46.439Z,46.00
2018-12-23T14:10:12.647Z,46.10
2018-12-23T14:12:39.603Z,46.10
2018-12-23T14:15:06.563Z,46.20
2018-12-23T14:17:32.766Z,46.10
2018-12-23T14:20:00.447Z,46.10
2018-12-23T14:22:26.723Z,46.00
2018-12-23T14:24:52.907Z,46.10
2018-12-23T14:27:19.149Z,46.10
2018-12-23T14:29:45.347Z,46.10
2018-12-23T14:32:11.569Z,46.10
2018-12-23T14:34:39.287Z,46.10
2018-12-23T14:37:05.514Z,46.10
2018-12-23T14:39:31.712Z,45.80
2018-12-23T14:41:57.953Z,46.10
2018-12-23T14:44:24.181Z,46.30
2018-12-23T14:46:50.371Z,46.30
2018-12-23T14:49:16.552Z,46.20
2018-12-23T14:51:42.746Z,46.10
2018-12-23T14:54:09.723Z,46.30
2018-12-23T14:56:35.931Z,46.10
2018-12-23T14:59:02.121Z,46.10
2018-12-23T15:01:28.308Z,46.30
2018-12-23T15:03:54.499Z,46.30
2018-12-23T15:06:21.504Z,46.20
2018-12-23T15:08:47.763Z,46.10
2018-12-23T15:11:14.128Z,46.40
2018-12-23T15:13:40.560Z,46.40
2018-12-23T15:16:06.768Z,46.40
2018-12-23T15:18:33.018Z,46.40
2018-12-23T15:20:59.220Z,46.50
2018-12-23T15:23:27.123Z,46.50
2018-12-23T15:25:53.546Z,46.50
2018-12-23T15:28:19.944Z,46.60
2018-12-23T15:30:46.173Z,46.70
2018-12-23T15:33:13.216Z,46.60
2018-12-23T15:35:39.458Z,46.50
2018-12-23T15:38:05.909Z,46.70
2018-12-23T15:40:32.295Z,46.70
2018-12-23T15:42:58.539Z,46.70
2018-12-23T15:45:24.966Z,46.70
2018-12-23T15:47:52.852Z,47.00
2018-12-23T15:50:19.091Z,46.90
2018-12-23T15:52:45.512Z,47.00
2018-12-23T15:55:12.576Z,47.10
2018-12-23T15:57:38.991Z,47.10
2018-12-23T16:00:05.449Z,47.10
2018-12-23T16:02:31.866Z,47.10
2018-12-23T16:04:58.123Z,47.10
2018-12-23T16:07:24.494Z,47.20
2018-12-23T16:09:51.225Z,47.20
2018-12-23T16:12:17.185Z,47.20
2018-12-23T16:14:43.404Z,47.20
2018-12-23T16:17:09.635Z,47.20
2018-12-23T16:19:37.537Z,47.10
2018-12-23T16:22:03.936Z,47.10
2018-12-23T16:24:30.607Z,47.20
2018-12-23T16:26:57.003Z,47.10
2018-12-23T16:29:23.232Z,47.20
2018-12-23T16:31:49.450Z,47.10
2018-12-23T16:34:15.933Z,47.10
2018-12-23T16:36:42.398Z,47.00
2018-12-23T16:39:08.616Z,47.10
2018-12-23T16:41:34.836Z,47.20
2018-12-23T16:44:01.067Z,47.20
2018-12-23T16:46:27.313Z,47.10
2018-12-23T16:48:53.508Z,47.10
2018-12-23T16:51:19.755Z,47.20
2018-12-23T16:53:45.962Z,47.30
2018-12-23T16:56:12.177Z,47.30
2018-12-23T16:58:38.433Z,47.30
2018-12-23T17:01:04.688Z,47.30
2018-12-23T17:03:30.882Z,47.40
2018-12-23T17:05:57.807Z,47.40
2018-12-23T17:08:24.941Z,47.50
2018-12-23T17:10:51.166Z,47.40
2018-12-23T17:13:18.883Z,47.40
2018-12-23T17:15:45.258Z,47.30
2018-12-23T17:18:11.527Z,47.40
2018-12-23T17:20:38.178Z,47.40
2018-12-23T17:23:04.602Z,47.40
2018-12-23T17:25:31.007Z,47.50
2018-12-23T17:27:57.872Z,47.60
2018-12-23T17:30:24.511Z,47.60
2018-12-23T17:32:50.951Z,47.60
2018-12-23T17:35:17.581Z,47.60
2018-12-23T17:37:44.034Z,47.60
2018-12-23T17:40:16.438Z,47.60
2018-12-23T17:42:36.845Z,47.60
2018-12-23T17:45:03.281Z,47.60
2018-12-23T17:47:29.851Z,47.60
2018-12-23T17:49:56.296Z,47.80
2018-12-23T17:52:23.292Z,47.80
2018-12-23T17:54:49.322Z,47.80
2018-12-23T17:57:15.563Z,47.90
2018-12-23T17:59:41.993Z,47.90
2018-12-23T18:02:08.209Z,47.80
2018-12-23T18:04:34.445Z,48.10
2018-12-23T18:07:03.819Z,48.00
2018-12-23T18:09:27.387Z,48.10
2018-12-23T18:11:53.764Z,48.00
2018-12-23T18:14:20.256Z,48.00
2018-12-23T18:16:46.628Z,47.90
2018-12-23T18:19:13.041Z,48.60
2018-12-23T18:21:40.973Z,47.90
2018-12-23T18:24:07.366Z,47.90
2018-12-23T18:26:33.805Z,47.90
2018-12-23T18:29:00.227Z,47.90
2018-12-23T18:31:26.673Z,48.00
2018-12-23T18:33:53.118Z,47.90
2018-12-23T18:36:19.541Z,48.00
2018-12-23T18:38:45.977Z,48.00
2018-12-23T18:41:12.408Z,48.00
2018-12-23T18:43:39.604Z,48.00
2018-12-23T18:46:05.846Z,47.90
2018-12-23T18:48:32.098Z,47.90
2018-12-23T18:50:58.531Z,47.90
2018-12-23T18:53:24.744Z,47.80
2018-12-23T18:55:50.971Z,47.90
2018-12-23T18:58:17.174Z,47.90
2018-12-23T19:00:43.403Z,47.90
2018-12-23T19:03:09.643Z,47.90
2018-12-23T19:05:36.113Z,47.90
2018-12-23T19:08:02.314Z,47.80
2018-12-23T19:10:28.503Z,47.80
2018-12-23T19:12:54.790Z,47.80
2018-12-23T19:15:20.979Z,47.80
2018-12-23T19:17:47.179Z,47.80
2018-12-23T19:20:13.430Z,47.80
2018-12-23T19:22:39.652Z,47.80
2018-12-23T19:25:05.851Z,47.80
2018-12-23T19:27:32.191Z,47.80
2018-12-23T19:29:58.383Z,47.70
2018-12-23T19:32:25.459Z,47.70
2018-12-23T19:34:51.659Z,47.70
2018-12-23T19:37:17.913Z,47.70
2018-12-23T19:39:44.129Z,47.70
2018-12-23T19:42:10.351Z,47.70
2018-12-23T19:44:36.563Z,47.70
2018-12-23T19:47:02.808Z,47.70
2018-12-23T19:49:29.038Z,47.50
2018-12-23T19:51:55.256Z,47.50
2018-12-23T19:54:21.467Z,47.50
2018-12-23T19:56:47.656Z,47.50
2018-12-23T19:59:13.861Z,47.50
2018-12-23T20:01:40.804Z,47.40
2018-12-23T20:04:06.996Z,47.40
2018-12-23T20:06:33.188Z,47.40
2018-12-23T20:08:59.496Z,47.40
2018-12-23T20:11:25.680Z,47.40
2018-12-23T20:13:51.896Z,47.30
2018-12-23T20:16:18.113Z,47.30
2018-12-23T20:18:44.346Z,47.30
2018-12-23T20:21:10.607Z,47.30
2018-12-23T20:23:36.805Z,47.30
2018-12-23T20:26:03.098Z,47.30
2018-12-23T20:28:29.335Z,47.20
2018-12-23T20:30:55.552Z,47.20
2018-12-23T20:33:21.770Z,47.20
2018-12-23T20:35:48.014Z,47.10
2018-12-23T20:38:14.925Z,47.10
2018-12-23T20:40:41.101Z,47.00
2018-12-23T20:43:07.323Z,47.00
2018-12-23T20:45:33.528Z,47.00
2018-12-23T20:47:59.719Z,47.00
2018-12-23T20:50:25.912Z,47.00
2018-12-23T20:52:52.124Z,47.00
2018-12-23T20:55:18.299Z,46.80
2018-12-23T20:57:44.503Z,46.80
2018-12-23T21:00:10.719Z,46.90
2018-12-23T21:02:36.915Z,46.80
2018-12-23T21:05:03.103Z,46.70
2018-12-23T21:07:29.312Z,46.70
2018-12-23T21:09:55.530Z,46.70
2018-12-23T21:12:21.759Z,46.70
2018-12-23T21:14:47.947Z,46.70
2018-12-23T21:17:14.939Z,47.30
2018-12-23T21:19:41.170Z,46.60
2018-12-23T21:22:07.392Z,46.60
2018-12-23T21:24:33.580Z,46.50
2018-12-23T21:26:59.806Z,46.50
2018-12-23T21:29:26.042Z,46.50
2018-12-23T21:31:52.253Z,46.40
2018-12-23T21:34:18.513Z,46.40
2018-12-23T21:36:44.714Z,46.40
2018-12-23T21:39:10.924Z,46.30
2018-12-23T21:41:37.132Z,46.30
2018-12-23T21:44:03.345Z,46.30
2018-12-23T21:46:29.657Z,46.20
2018-12-23T21:48:55.864Z,46.20
2018-12-23T21:51:22.059Z,46.80
2018-12-23T21:53:48.258Z,46.20
2018-12-23T21:56:14.538Z,46.10
2018-12-23T21:58:40.799Z,46.10
2018-12-23T22:01:07.018Z,46.10
2018-12-23T22:03:33.268Z,46.00
2018-12-23T22:05:59.449Z,46.00
2018-12-23T22:08:25.651Z,46.00
2018-12-23T22:10:51.833Z,46.00
2018-12-23T22:13:18.987Z,45.90
2018-12-23T22:15:45.182Z,45.90
2018-12-23T22:18:11.417Z,45.80
2018-12-23T22:20:37.672Z,45.80
2018-12-23T22:23:03.893Z,45.80
2018-12-23T22:25:30.075Z,45.80
2018-12-23T22:27:56.320Z,45.70
2018-12-23T22:30:22.508Z,45.70
2018-12-23T22:32:48.703Z,45.70
2018-12-23T22:35:15.672Z,45.60
2018-12-23T22:37:41.910Z,45.50
2018-12-23T22:40:08.083Z,45.60
2018-12-23T22:42:34.300Z,45.50
2018-12-23T22:45:00.573Z,45.50
2018-12-23T22:47:26.783Z,45.50
2018-12-23T22:49:52.982Z,45.50
2018-12-23T22:52:19.159Z,45.50
2018-12-23T22:54:45.380Z,45.30
2018-12-23T22:57:11.555Z,45.40
2018-12-23T22:59:37.943Z,45.30
2018-12-23T23:02:04.146Z,45.30
2018-12-23T23:04:30.377Z,45.20
2018-12-23T23:06:56.574Z,45.20
2018-12-23T23:09:22.780Z,45.30
2018-12-23T23:11:49.914Z,45.20
2018-12-23T23:14:15.256Z,45.10
2018-12-23T23:16:41.443Z,45.20
2018-12-23T23:19:07.650Z,44.80
2018-12-23T23:21:34.580Z,45.00
2018-12-23T23:24:00.808Z,45.00
2018-12-23T23:26:26.987Z,44.90
2018-12-23T23:28:53.179Z,44.90
2018-12-23T23:31:20.146Z,44.60
2018-12-23T23:33:46.584Z,44.60
2018-12-23T23:36:13.170Z,44.70
2018-12-23T23:38:40.899Z,44.70
2018-12-23T23:41:07.100Z,44.70
2018-12-23T23:43:33.303Z,44.60
2018-12-23T23:45:59.500Z,45.20
2018-12-23T23:48:25.691Z,44.60
2018-12-23T23:50:52.583Z,44.60
2018-12-23T23:53:18.240Z,44.50
2018-12-23T23:55:44.446Z,44.50
2018-12-23T23:58:10.659Z,44.40
